Time;durP1;ratioP1;P1;durP2;ratioP2;P2;SDS_P1;SDS_P2;PMS_P1;PMS_P2;Temp;Humidity;BMP_temperature;BMP_pressure;BME280_temperature;BME280_humidity;BME280_pressure;Samples;Min_cycle;Max_cycle;Signal;HPM_P1;HPM_P2
2022/07/26 00:01:05;;;;;;;;;1.50;0.75;;;;;-146.44;100.00;58906.56;5076052;28;45477;-64
2022/07/26 00:03:31;;;;;;;;;1.25;1.25;;;;;-146.44;100.00;58906.56;5076936;27;50851;-65
2022/07/26 00:05:57;;;;;;;;;2.00;2.00;;;;;-146.44;100.00;58906.56;5077347;27;45414;-65
2022/07/26 00:08:22;;;;;;;;;1.00;1.00;;;;;-146.44;100.00;58906.56;5077237;28;46855;-65
2022/07/26 00:10:49;;;;;;;;;3.00;1.75;;;;;-146.44;100.00;58906.56;5077374;27;45500;-64
2022/07/26 00:13:17;;;;;;;;;1.00;1.00;;;;;-146.44;100.00;58906.56;5077417;27;45381;-64
2022/07/26 00:15:43;;;;;;;;;1.25;1.25;;;;;-146.44;100.00;58906.56;5077392;27;45374;-65
2022/07/26 00:18:09;;;;;;;;;1.00;1.00;;;;;-146.44;100.00;58906.56;5077140;28;46532;-64
2022/07/26 00:20:35;;;;;;;;;2.00;2.00;;;;;-146.44;100.00;58906.56;5077055;27;45538;-64
2022/07/26 00:23:01;;;;;;;;;2.75;1.50;;;;;-146.44;100.00;58906.56;5077331;27;45472;-64
2022/07/26 00:25:26;;;;;;;;;0.00;0.00;;;;;-146.44;100.00;58906.56;5077110;28;45367;-64
2022/07/26 00:27:51;;;;;;;;;2.25;1.00;;;;;-146.44;100.00;58906.56;5077138;27;45901;-65
2022/07/26 00:30:17;;;;;;;;;1.50;1.00;;;;;-146.44;100.00;58906.56;5077354;27;45425;-64
2022/07/26 00:32:43;;;;;;;;;1.00;1.00;;;;;-146.44;100.00;58906.56;5077277;27;45441;-65
2022/07/26 00:35:08;;;;;;;;;1.75;1.75;;;;;-146.44;100.00;58906.56;5077204;27;45317;-64
2022/07/26 00:37:34;;;;;;;;;1.25;0.50;;;;;-146.44;100.00;58906.56;5076894;27;45883;-64
2022/07/26 00:39:59;;;;;;;;;0.75;0.75;;;;;-146.44;100.00;58906.56;5076907;27;45514;-65
2022/07/26 00:42:24;;;;;;;;;1.50;1.50;;;;;-146.44;100.00;58906.56;5077184;27;45408;-65
2022/07/26 00:44:50;;;;;;;;;1.00;1.00;;;;;-146.44;100.00;58906.56;5092555;27;45650;-64
2022/07/26 00:47:16;;;;;;;;;1.50;1.00;;;;;-146.44;100.00;58906.56;5076858;27;45487;-64
2022/07/26 00:49:42;;;;;;;;;0.00;0.00;;;;;-146.44;100.00;58906.56;5076655;27;45437;-64
2022/07/26 00:52:08;;;;;;;;;0.00;0.00;;;;;-146.44;100.00;58906.56;5076837;28;45594;-64
2022/07/26 00:54:35;;;;;;;;;2.00;0.75;;;;;-146.44;100.00;58906.56;5076851;27;45439;-64
2022/07/26 00:57:01;;;;;;;;;1.00;1.00;;;;;-146.44;100.00;58906.56;5076067;27;45470;-64
2022/07/26 00:59:26;;;;;;;;;2.75;1.00;;;;;-146.44;100.00;58906.56;5076595;27;45495;-65
2022/07/26 01:01:51;;;;;;;;;3.25;2.00;;;;;-146.44;100.00;58906.56;5076592;28;45480;-65
2022/07/26 01:04:17;;;;;;;;;0.00;0.00;;;;;-146.44;100.00;58906.56;5076409;27;45536;-64
2022/07/26 01:06:42;;;;;;;;;1.75;1.75;;;;;-146.44;100.00;58906.56;5076433;27;46293;-65
2022/07/26 01:09:09;;;;;;;;;2.00;2.00;;;;;-146.44;100.00;58906.56;5074909;28;45442;-65
2022/07/26 01:11:34;;;;;;;;;0.00;0.00;;;;;-146.44;100.00;58906.56;5076463;27;45416;-64
2022/07/26 01:14:00;;;;;;;;;1.25;1.25;;;;;-146.44;100.00;58906.56;5076466;27;45496;-64
2022/07/26 01:16:25;;;;;;;;;1.50;1.00;;;;;-146.44;100.00;58906.56;5076227;27;45450;-65
2022/07/26 01:18:51;;;;;;;;;2.00;1.00;;;;;-146.44;100.00;58906.56;5076108;27;45544;-64
2022/07/26 01:21:16;;;;;;;;;0.50;0.50;;;;;-146.44;100.00;58906.56;5076391;27;45376;-65
2022/07/26 01:23:42;;;;;;;;;2.00;1.00;;;;;-146.44;100.00;58906.56;5076297;27;45362;-65
2022/07/26 01:26:08;;;;;;;;;2.75;1.75;;;;;-146.44;100.00;58906.56;5076011;27;45433;-64
2022/07/26 01:28:36;;;;;;;;;2.00;1.00;;;;;-146.44;100.00;58906.56;5076219;27;45409;-64
2022/07/26 01:31:01;;;;;;;;;1.00;1.00;;;;;-146.44;100.00;58906.56;5076228;27;45389;-65
2022/07/26 01:33:27;;;;;;;;;1.00;1.00;;;;;-146.44;100.00;58906.56;5076293;27;45380;-65
2022/07/26 01:35:52;;;;;;;;;1.75;1.75;;;;;-146.44;100.00;58906.56;5076131;28;45424;-65
2022/07/26 01:38:18;;;;;;;;;1.00;1.00;;;;;-146.44;100.00;58906.56;5076169;27;45516;-65
2022/07/26 01:40:43;;;;;;;;;1.00;1.00;;;;;-146.44;100.00;58906.56;5076038;27;45420;-64
2022/07/26 01:43:09;;;;;;;;;0.00;0.00;;;;;-146.44;100.00;58906.56;5076152;27;45456;-64
2022/07/26 01:45:34;;;;;;;;;1.00;1.00;;;;;-146.44;100.00;58906.56;5075693;27;45462;-64
2022/07/26 01:48:00;;;;;;;;;0.00;0.00;;;;;-146.44;100.00;58906.56;5076215;27;45501;-64
2022/07/26 01:50:25;;;;;;;;;2.25;1.00;;;;;-146.44;100.00;58906.56;5075941;27;45557;-64
2022/07/26 01:52:51;;;;;;;;;1.50;1.50;;;;;-146.44;100.00;58906.56;5075885;27;45602;-64
2022/07/26 01:55:16;;;;;;;;;0.00;0.00;;;;;-146.44;100.00;58906.56;5075832;27;45471;-65
2022/07/26 01:57:44;;;;;;;;;0.00;0.00;;;;;-146.44;100.00;58906.56;5075724;28;45439;-64
2022/07/26 02:00:10;;;;;;;;;1.25;1.25;;;;;-146.44;100.00;58906.56;5075692;27;45496;-65
2022/07/26 02:02:35;;;;;;;;;0.75;0.75;;;;;-146.44;100.00;58906.56;5075812;27;45508;-64
2022/07/26 02:05:01;;;;;;;;;1.00;1.00;;;;;-146.44;100.00;58906.56;5075654;27;46146;-64
2022/07/26 02:07:31;;;;;;;;;1.50;1.50;;;;;-146.44;100.00;58906.56;5076124;27;45543;-64
2022/07/26 02:09:57;;;;;;;;;1.00;1.00;;;;;-146.44;100.00;58906.56;5079453;27;45370;-64
2022/07/26 02:12:23;;;;;;;;;1.00;1.00;;;;;-146.44;100.00;58906.56;5079374;27;45626;-64
2022/07/26 02:14:49;;;;;;;;;2.50;0.00;;;;;-146.44;100.00;58906.56;5078891;27;45979;-64
2022/07/26 02:17:15;;;;;;;;;1.00;1.00;;;;;-146.44;100.00;58906.56;5079240;27;45671;-64
2022/07/26 02:19:40;;;;;;;;;1.00;1.00;;;;;-146.44;100.00;58906.56;5079444;27;45407;-64
2022/07/26 02:22:06;;;;;;;;;0.75;0.75;;;;;-146.44;100.00;58906.56;5079020;27;45482;-64
2022/07/26 02:24:32;;;;;;;;;1.00;1.00;;;;;-146.44;100.00;58906.56;5078866;28;45536;-64
2022/07/26 02:26:58;;;;;;;;;0.00;0.00;;;;;-146.44;100.00;58906.56;5079092;27;45460;-64
2022/07/26 02:29:25;;;;;;;;;1.50;1.50;;;;;-146.44;100.00;58906.56;5079105;28;45608;-64
2022/07/26 02:31:51;;;;;;;;;1.00;1.00;;;;;-146.44;100.00;58906.56;5079173;27;45524;-64
2022/07/26 02:34:17;;;;;;;;;1.25;1.25;;;;;-146.44;100.00;58906.56;5078791;27;46050;-64
2022/07/26 02:36:43;;;;;;;;;1.00;1.00;;;;;-146.44;100.00;58906.56;5078847;27;45473;-65
2022/07/26 02:39:08;;;;;;;;;1.00;1.00;;;;;-146.44;100.00;58906.56;5078957;27;45483;-64
2022/07/26 02:41:34;;;;;;;;;1.50;0.00;;;;;-146.44;100.00;58906.56;5078935;28;45480;-64
2022/07/26 02:43:59;;;;;;;;;1.00;1.00;;;;;-146.44;100.00;58906.56;5078639;27;45696;-64
2022/07/26 02:46:25;;;;;;;;;0.00;0.00;;;;;-146.44;100.00;58906.56;5078795;27;45852;-64
2022/07/26 02:48:50;;;;;;;;;1.00;1.00;;;;;-146.44;100.00;58906.56;5079055;27;45496;-64
2022/07/26 02:51:16;;;;;;;;;1.00;1.00;;;;;-146.44;100.00;58906.56;5078666;27;45692;-64
2022/07/26 02:53:41;;;;;;;;;0.75;0.75;;;;;-146.44;100.00;58906.56;5078107;27;45504;-64
2022/07/26 02:56:07;;;;;;;;;0.50;0.50;;;;;-146.44;100.00;58906.56;5078651;27;45478;-64
2022/07/26 02:58:32;;;;;;;;;2.00;1.00;;;;;-146.44;100.00;58906.56;5078911;27;45463;-64
2022/07/26 03:00:58;;;;;;;;;1.00;1.00;;;;;-146.44;100.00;58906.56;5094431;27;45331;-64
2022/07/26 03:03:23;;;;;;;;;0.50;0.50;;;;;-146.44;100.00;58906.56;5078205;27;45434;-64
2022/07/26 03:05:49;;;;;;;;;1.00;1.00;;;;;-146.44;100.00;58906.56;5078326;27;45403;-64
2022/07/26 03:08:14;;;;;;;;;2.00;1.00;;;;;-146.44;100.00;58906.56;5078571;27;45401;-64
2022/07/26 03:10:40;;;;;;;;;2.25;1.50;;;;;-146.44;100.00;58906.56;5078639;27;45465;-64
2022/07/26 03:13:05;;;;;;;;;0.75;0.75;;;;;-146.44;100.00;58906.56;5078260;27;45743;-64
2022/07/26 03:15:31;;;;;;;;;2.00;2.00;;;;;-146.44;100.00;58906.56;5078279;27;45561;-64
2022/07/26 03:17:56;;;;;;;;;0.00;0.00;;;;;-146.44;100.00;58906.56;5078143;27;45362;-64
2022/07/26 03:20:22;;;;;;;;;1.00;1.00;;;;;-146.44;100.00;58906.56;5078097;27;45596;-64
2022/07/26 03:22:47;;;;;;;;;1.25;1.25;;;;;-146.44;100.00;58906.56;5078014;27;45465;-64
2022/07/26 03:25:13;;;;;;;;;2.00;1.00;;;;;-146.44;100.00;58906.56;5077914;27;45564;-64
2022/07/26 03:27:39;;;;;;;;;0.75;0.75;;;;;-146.44;100.00;58906.56;5078501;27;45430;-64
2022/07/26 03:30:05;;;;;;;;;0.00;0.00;;;;;-146.44;100.00;58906.56;5078210;27;45424;-65
2022/07/26 03:32:30;;;;;;;;;0.50;0.50;;;;;-146.44;100.00;58906.56;5076426;28;47330;-64
2022/07/26 03:34:56;;;;;;;;;2.00;2.00;;;;;-146.44;100.00;58906.56;5093590;27;45429;-65
2022/07/26 03:37:22;;;;;;;;;1.00;1.00;;;;;-146.44;100.00;58906.56;5077917;27;45444;-64
2022/07/26 03:39:48;;;;;;;;;1.00;1.00;;;;;-146.44;100.00;58906.56;5078050;27;45551;-64
2022/07/26 03:42:13;;;;;;;;;1.00;1.00;;;;;-146.44;100.00;58906.56;5077701;28;45441;-65
2022/07/26 03:44:39;;;;;;;;;2.00;2.00;;;;;-146.44;100.00;58906.56;5077611;27;45453;-64
2022/07/26 03:47:04;;;;;;;;;1.00;1.00;;;;;-146.44;100.00;58906.56;5078036;27;45401;-64
2022/07/26 03:49:29;;;;;;;;;2.25;2.25;;;;;-146.44;100.00;58906.56;5076615;28;45503;-64
2022/07/26 03:51:55;;;;;;;;;1.00;1.00;;;;;-146.44;100.00;58906.56;5077594;27;45511;-64
2022/07/26 03:54:21;;;;;;;;;1.00;1.00;;;;;-146.44;100.00;58906.56;5077733;27;45437;-64
2022/07/26 03:56:46;;;;;;;;;2.00;2.00;;;;;-146.44;100.00;58906.56;5077859;27;45400;-64
2022/07/26 03:59:12;;;;;;;;;1.00;1.00;;;;;-146.44;100.00;58906.56;5077685;27;45512;-64
2022/07/26 04:01:40;;;;;;;;;1.75;1.50;;;;;-146.44;100.00;58906.56;5077405;27;45371;-64
2022/07/26 04:04:08;;;;;;;;;2.00;2.00;;;;;-146.44;100.00;58906.56;5076199;27;45355;-64
2022/07/26 04:06:33;;;;;;;;;1.00;1.00;;;;;-146.44;100.00;58906.56;5093341;27;45388;-64
2022/07/26 04:08:58;;;;;;;;;1.00;1.00;;;;;-146.44;100.00;58906.56;5077412;27;45376;-64
2022/07/26 04:11:24;;;;;;;;;3.00;2.00;;;;;-146.44;100.00;58906.56;5077230;27;45378;-64
2022/07/26 04:13:49;;;;;;;;;2.25;2.25;;;;;-146.44;100.00;58906.56;5077276;27;45330;-64
2022/07/26 04:16:14;;;;;;;;;2.00;2.00;;;;;-146.44;100.00;58906.56;5077260;27;45363;-64
2022/07/26 04:18:41;;;;;;;;;1.75;1.00;;;;;-146.44;100.00;58906.56;5077148;27;45366;-64
2022/07/26 04:21:06;;;;;;;;;2.00;2.00;;;;;-146.44;100.00;58906.56;5077128;27;45963;-64
2022/07/26 04:23:31;;;;;;;;;3.50;3.50;;;;;-146.44;100.00;58906.56;5077120;27;45408;-64
2022/07/26 04:25:57;;;;;;;;;3.00;3.00;;;;;-146.44;100.00;58906.56;5077067;27;45359;-64
2022/07/26 04:28:25;;;;;;;;;1.00;1.00;;;;;-146.44;100.00;58906.56;5077257;27;45369;-64
2022/07/26 04:30:50;;;;;;;;;2.25;1.00;;;;;-146.44;100.00;58906.56;5076061;27;45500;-64
2022/07/26 04:33:16;;;;;;;;;4.25;2.00;;;;;-146.44;100.00;58906.56;5076969;27;45480;-64
2022/07/26 04:35:41;;;;;;;;;2.00;2.00;;;;;-146.44;100.00;58906.56;5077353;27;45472;-63
2022/07/26 04:38:07;;;;;;;;;2.75;1.00;;;;;-146.44;100.00;58906.56;5075748;27;45585;-64
2022/07/26 04:40:32;;;;;;;;;1.50;1.50;;;;;-146.44;100.00;58906.56;5076774;27;45858;-64
2022/07/26 04:42:59;;;;;;;;;2.00;2.00;;;;;-146.44;100.00;58906.56;5077028;27;45434;-64
2022/07/26 04:45:25;;;;;;;;;3.50;2.75;;;;;-146.44;100.00;58906.56;5076889;27;45426;-64
2022/07/26 04:47:51;;;;;;;;;2.75;2.75;;;;;-146.44;100.00;58906.56;5076876;28;45433;-64
2022/07/26 04:50:18;;;;;;;;;2.50;2.50;;;;;-146.44;100.00;58906.56;5075457;28;46095;-64
2022/07/26 04:52:43;;;;;;;;;1.75;1.75;;;;;-146.44;100.00;58906.56;5076754;27;45524;-64
2022/07/26 04:55:10;;;;;;;;;4.50;3.00;;;;;-146.44;100.00;58906.56;5076791;27;45653;-64
2022/07/26 04:57:35;;;;;;;;;4.50;2.50;;;;;-146.44;100.00;58906.56;5075510;28;45505;-64
2022/07/26 05:00:01;;;;;;;;;2.25;2.25;;;;;-146.44;100.00;58906.56;5076313;27;45444;-64
2022/07/26 05:02:27;;;;;;;;;2.00;2.00;;;;;-146.44;100.00;58906.56;5075110;27;45456;-64
2022/07/26 05:04:52;;;;;;;;;3.50;3.00;;;;;-146.44;100.00;58906.56;5076485;27;45532;-64
2022/07/26 05:07:18;;;;;;;;;4.75;3.50;;;;;-146.44;100.00;58906.56;5076660;27;45401;-64
2022/07/26 05:09:43;;;;;;;;;2.00;2.00;;;;;-146.44;100.00;58906.56;5076244;27;46244;-65
2022/07/26 05:12:09;;;;;;;;;3.75;2.50;;;;;-146.44;100.00;58906.56;5076129;27;45403;-64
2022/07/26 05:14:36;;;;;;;;;3.00;3.00;;;;;-146.44;100.00;58906.56;5076214;27;45319;-64
2022/07/26 05:17:02;;;;;;;;;2.50;2.25;;;;;-146.44;100.00;58906.56;5076590;27;45407;-65
2022/07/26 05:19:27;;;;;;;;;3.25;2.50;;;;;-146.44;100.00;58906.56;5076269;27;45387;-64
2022/07/26 05:21:53;;;;;;;;;2.25;2.25;;;;;-146.44;100.00;58906.56;5076101;27;45470;-64
2022/07/26 05:24:18;;;;;;;;;3.25;2.75;;;;;-146.44;100.00;58906.56;5076101;27;45448;-65
2022/07/26 05:26:44;;;;;;;;;2.75;2.75;;;;;-146.44;100.00;58906.56;5076190;27;45448;-65
2022/07/26 05:29:10;;;;;;;;;4.50;3.00;;;;;-146.44;100.00;58906.56;5076020;27;46342;-65
2022/07/26 05:31:35;;;;;;;;;4.25;3.75;;;;;-146.44;100.00;58906.56;5076221;27;45445;-64
2022/07/26 05:34:02;;;;;;;;;4.50;3.25;;;;;-146.44;100.00;58906.56;5076269;27;45544;-64
2022/07/26 05:36:27;;;;;;;;;5.25;3.50;;;;;-146.44;100.00;58906.56;5091865;27;45410;-64
2022/07/26 05:38:53;;;;;;;;;4.00;4.00;;;;;-146.44;100.00;58906.56;5075909;27;46091;-64
2022/07/26 05:41:18;;;;;;;;;5.25;3.00;;;;;-146.44;100.00;58906.56;5075850;27;45455;-65
2022/07/26 05:43:43;;;;;;;;;3.25;3.25;;;;;-146.44;100.00;58906.56;5076164;27;45503;-64
2022/07/26 05:46:10;;;;;;;;;2.00;2.00;;;;;-146.44;100.00;58906.56;5075893;27;45457;-64
2022/07/26 05:48:37;;;;;;;;;4.50;3.25;;;;;-146.44;100.00;58906.56;5075883;27;46156;-65
2022/07/26 05:51:02;;;;;;;;;2.75;2.75;;;;;-146.44;100.00;58906.56;5075738;27;45512;-65
2022/07/26 05:53:28;;;;;;;;;3.25;3.00;;;;;-146.44;100.00;58906.56;5075901;27;45484;-64
2022/07/26 05:55:53;;;;;;;;;4.00;3.00;;;;;-146.44;100.00;58906.56;5075815;27;45628;-63
2022/07/26 05:58:18;;;;;;;;;4.50;4.00;;;;;-146.44;100.00;58906.56;5091417;27;47090;-64
2022/07/26 06:00:44;;;;;;;;;3.50;3.50;;;;;-146.44;100.00;58906.56;5075598;27;45463;-64
2022/07/26 06:03:21;;;;;;;;;3.00;3.00;;;;;-146.44;100.00;58906.56;5075707;27;45424;-64
2022/07/26 06:05:56;;;;;;;;;4.50;3.00;;;;;-146.44;100.00;58906.56;5075685;27;45530;-64
2022/07/26 06:08:22;;;;;;;;;3.00;3.00;;;;;-146.44;100.00;58906.56;5075596;27;46160;-64
2022/07/26 06:10:49;;;;;;;;;2.50;2.50;;;;;-146.44;100.00;58906.56;5075592;27;45620;-64
2022/07/26 06:13:15;;;;;;;;;3.00;3.00;;;;;-146.44;100.00;58906.56;5075395;27;45381;-64
2022/07/26 06:15:41;;;;;;;;;4.00;4.00;;;;;-146.44;100.00;58906.56;5075627;27;45339;-65
2022/07/26 06:18:07;;;;;;;;;3.25;3.25;;;;;-146.44;100.00;58906.56;5075401;28;45420;-64
2022/07/26 06:20:33;;;;;;;;;3.00;3.00;;;;;-146.44;100.00;58906.56;5075452;28;45606;-65
2022/07/26 06:22:59;;;;;;;;;3.25;3.25;;;;;-146.44;100.00;58906.56;5075689;27;45454;-65
2022/07/26 06:25:25;;;;;;;;;5.75;3.00;;;;;-146.44;100.00;58906.56;5075716;27;45439;-66
2022/07/26 06:27:51;;;;;;;;;3.75;3.75;;;;;-146.44;100.00;58906.56;5075229;27;45527;-65
2022/07/26 06:30:17;;;;;;;;;3.00;3.00;;;;;-146.44;100.00;58906.56;5075298;27;45575;-64
2022/07/26 06:32:45;;;;;;;;;4.00;4.00;;;;;-146.44;100.00;58906.56;5075553;27;45727;-64
2022/07/26 06:35:12;;;;;;;;;4.00;4.00;;;;;-146.44;100.00;58906.56;5075180;27;45389;-64
2022/07/26 06:37:38;;;;;;;;;3.00;1.50;;;;;-146.44;100.00;58906.56;5075073;27;45492;-64
2022/07/26 06:40:09;;;;;;;;;3.50;1.75;;;;;-146.44;100.00;58906.56;5075291;28;45446;-64
2022/07/26 06:42:35;;;;;;;;;2.25;2.25;;;;;-146.44;100.00;58906.56;5075180;27;45369;-64
2022/07/26 06:45:02;;;;;;;;;4.50;4.00;;;;;-146.44;100.00;58906.56;5075079;27;45389;-64
2022/07/26 06:47:27;;;;;;;;;3.75;3.75;;;;;-146.44;100.00;58906.56;5074938;27;45420;-64
2022/07/26 06:49:52;;;;;;;;;3.75;3.25;;;;;-146.44;100.00;58906.56;5074746;27;45462;-64
2022/07/26 06:52:18;;;;;;;;;2.75;2.75;;;;;-146.44;100.00;58906.56;5075197;27;45482;-64
2022/07/26 06:54:43;;;;;;;;;5.50;4.25;;;;;-146.44;100.00;58906.56;5077405;27;45648;-65
2022/07/26 06:57:09;;;;;;;;;5.50;4.50;;;;;-146.44;100.00;58906.56;5078309;27;45434;-64
2022/07/26 06:59:34;;;;;;;;;3.00;3.00;;;;;-146.44;100.00;58906.56;5078713;27;45486;-64
2022/07/26 07:02:00;;;;;;;;;4.25;3.00;;;;;-146.44;100.00;58906.56;5078497;27;45455;-64
2022/07/26 07:04:28;;;;;;;;;5.25;4.75;;;;;-146.44;100.00;58906.56;5078337;28;45497;-64
2022/07/26 07:06:53;;;;;;;;;5.50;3.00;;;;;-146.44;100.00;58906.56;5077129;28;46151;-64
2022/07/26 07:09:19;;;;;;;;;5.50;3.00;;;;;-146.44;100.00;58906.56;5078071;27;48428;-64
2022/07/26 07:11:44;;;;;;;;;4.50;3.25;;;;;-146.44;100.00;58906.56;5078449;27;45444;-65
2022/07/26 07:14:10;;;;;;;;;3.00;3.00;;;;;-146.44;100.00;58906.56;5078219;27;45602;-65
2022/07/26 07:16:35;;;;;;;;;5.50;4.25;;;;;-146.44;100.00;58906.56;5077850;27;45417;-65
2022/07/26 07:19:00;;;;;;;;;3.75;3.25;;;;;-146.44;100.00;58906.56;5078017;27;45399;-64
2022/07/26 07:21:26;;;;;;;;;1.25;1.00;;;;;-146.44;100.00;58906.56;5078251;27;45409;-65
2022/07/26 07:23:51;;;;;;;;;5.75;5.75;;;;;-146.44;100.00;58906.56;5078157;27;45421;-64
2022/07/26 07:26:18;;;;;;;;;5.00;5.00;;;;;-146.44;100.00;58906.56;5077739;28;45494;-65
2022/07/26 07:28:44;;;;;;;;;3.75;3.00;;;;;-146.44;100.00;58906.56;5093789;27;45513;-65
2022/07/26 07:31:10;;;;;;;;;3.75;3.75;;;;;-146.44;100.00;58906.56;5078061;28;45456;-65
2022/07/26 07:33:35;;;;;;;;;5.00;4.00;;;;;-146.44;100.00;58906.56;5078103;27;45564;-65
2022/07/26 07:36:00;;;;;;;;;3.00;2.50;;;;;-146.44;100.00;58906.56;5077910;27;45653;-66
2022/07/26 07:38:26;;;;;;;;;4.75;4.00;;;;;-146.44;100.00;58906.56;5078063;27;45512;-65
2022/07/26 07:40:51;;;;;;;;;7.25;5.50;;;;;-146.44;100.00;58906.56;5077985;27;45439;-65
2022/07/26 07:43:17;;;;;;;;;5.25;4.50;;;;;-146.44;100.00;58906.56;5078082;27;45501;-65
2022/07/26 07:45:42;;;;;;;;;4.00;4.00;;;;;-146.44;100.00;58906.56;5077596;27;46024;-65
2022/07/26 07:48:07;;;;;;;;;4.00;4.00;;;;;-146.44;100.00;58906.56;5077764;27;45458;-65
2022/07/26 07:50:33;;;;;;;;;5.00;5.00;;;;;-146.44;100.00;58906.56;5077681;27;45457;-65
2022/07/26 07:52:58;;;;;;;;;5.50;4.75;;;;;-146.44;100.00;58906.56;5077748;27;45378;-65
2022/07/26 07:55:24;;;;;;;;;4.00;4.00;;;;;-146.44;100.00;58906.56;5077391;27;46023;-65
2022/07/26 07:57:49;;;;;;;;;4.00;4.00;;;;;-146.44;100.00;58906.56;5077653;27;45369;-65
2022/07/26 08:00:17;;;;;;;;;3.25;3.25;;;;;-146.44;100.00;58906.56;5093489;27;45455;-65
2022/07/26 08:02:46;;;;;;;;;5.00;4.00;;;;;-146.44;100.00;58906.56;5077399;27;45556;-65
2022/07/26 08:05:12;;;;;;;;;4.25;4.25;;;;;-146.44;100.00;58906.56;5076080;27;47095;-65
2022/07/26 08:07:37;;;;;;;;;3.00;3.00;;;;;-146.44;100.00;58906.56;5077287;28;45449;-65
2022/07/26 08:10:03;;;;;;;;;3.00;3.00;;;;;-146.44;100.00;58906.56;5077463;27;45451;-65
2022/07/26 08:12:29;;;;;;;;;5.00;3.50;;;;;-146.44;100.00;58906.56;5076009;28;45437;-65
2022/07/26 08:14:54;;;;;;;;;5.00;2.50;;;;;-146.44;100.00;58906.56;5077143;27;46094;-65
2022/07/26 08:17:19;;;;;;;;;2.25;2.25;;;;;-146.44;100.00;58906.56;5077422;27;45482;-65
2022/07/26 08:19:45;;;;;;;;;3.00;3.00;;;;;-146.44;100.00;58906.56;5077403;27;45449;-65
2022/07/26 08:22:10;;;;;;;;;1.75;1.75;;;;;-146.44;100.00;58906.56;5077319;27;45512;-65
2022/07/26 08:24:35;;;;;;;;;4.50;4.50;;;;;-146.44;100.00;58906.56;5077005;27;45433;-65
2022/07/26 08:27:01;;;;;;;;;5.00;4.00;;;;;-146.44;100.00;58906.56;5077071;27;45439;-65
2022/07/26 08:29:27;;;;;;;;;3.25;3.25;;;;;-146.44;100.00;58906.56;5077076;27;45357;-65
2022/07/26 08:31:52;;;;;;;;;3.00;3.00;;;;;-146.44;100.00;58906.56;5092812;27;45423;-65
2022/07/26 08:34:18;;;;;;;;;4.75;4.75;;;;;-146.44;100.00;58906.56;5077109;27;45447;-65
2022/07/26 08:36:44;;;;;;;;;4.00;4.00;;;;;-146.44;100.00;58906.56;5075666;28;45505;-65
2022/07/26 08:39:09;;;;;;;;;4.00;4.00;;;;;-146.44;100.00;58906.56;5077086;27;45461;-65
2022/07/26 08:41:35;;;;;;;;;4.00;4.00;;;;;-146.44;100.00;58906.56;5077084;27;45327;-65
2022/07/26 08:44:08;;;;;;;;;6.00;5.00;;;;;-146.44;100.00;58906.56;5076686;28;45994;-65
2022/07/26 08:46:38;;;;;;;;;4.25;4.25;;;;;-146.44;100.00;58906.56;5076804;28;45436;-65
2022/07/26 08:49:05;;;;;;;;;5.50;5.50;;;;;-146.44;100.00;58906.56;5075447;28;45433;-65
2022/07/26 08:51:36;;;;;;;;;4.50;4.50;;;;;-146.44;100.00;58906.56;5076980;27;45388;-67
2022/07/26 08:54:01;;;;;;;;;3.00;3.00;;;;;-146.44;100.00;58906.56;5076451;27;46213;-65
2022/07/26 08:56:27;;;;;;;;;3.50;3.50;;;;;-146.44;100.00;58906.56;5076595;27;45486;-66
2022/07/26 08:58:52;;;;;;;;;6.25;3.00;;;;;-146.44;100.00;58906.56;5076574;27;45466;-65
2022/07/26 09:01:17;;;;;;;;;4.75;4.75;;;;;-146.44;100.00;58906.56;5076434;27;45433;-65
2022/07/26 09:03:44;;;;;;;;;3.00;3.00;;;;;-146.44;100.00;58906.56;5076399;27;45978;-65
2022/07/26 09:06:19;;;;;;;;;4.00;4.00;;;;;-146.44;100.00;58906.56;5076364;28;45331;-65
2022/07/26 09:08:48;;;;;;;;;3.00;3.00;;;;;-146.44;100.00;58906.56;5075295;27;45410;-65
2022/07/26 09:11:22;;;;;;;;;5.50;4.75;;;;;-146.44;100.00;58906.56;5076356;28;45409;-65
2022/07/26 09:13:53;;;;;;;;;4.00;4.00;;;;;-146.44;100.00;58906.56;5076281;27;45389;-65
2022/07/26 09:16:19;;;;;;;;;4.50;4.00;;;;;-146.44;100.00;58906.56;5074301;28;46028;-65
2022/07/26 09:18:45;;;;;;;;;4.25;4.25;;;;;-146.44;100.00;58906.56;5076741;27;45480;-65
2022/07/26 09:21:46;;;;;;;;;5.75;4.75;;;;;-146.44;100.00;58906.56;5076101;27;45390;-65
2022/07/26 09:24:11;;;;;;;;;4.00;4.00;;;;;-146.44;100.00;58906.56;5073606;28;45569;-65
2022/07/26 09:26:37;;;;;;;;;4.50;4.00;;;;;-146.44;100.00;58906.56;5074264;28;45456;-66
2022/07/26 09:29:08;;;;;;;;;4.00;4.00;;;;;-146.44;100.00;58906.56;5076210;27;45464;-65
2022/07/26 09:31:35;;;;;;;;;2.50;1.25;;;;;-146.44;100.00;58906.56;5076179;27;45365;-65
2022/07/26 09:34:01;;;;;;;;;4.00;4.00;;;;;-146.44;100.00;58906.56;5075969;27;46127;-65
2022/07/26 09:36:27;;;;;;;;;2.50;2.50;;;;;-146.44;100.00;58906.56;5075991;28;45454;-65
2022/07/26 09:38:57;;;;;;;;;4.50;4.00;;;;;-146.44;100.00;58906.56;5076133;27;45479;-65
2022/07/26 09:41:34;;;;;;;;;5.00;4.00;;;;;-146.44;100.00;58906.56;5075985;27;45534;-65
2022/07/26 09:44:05;;;;;;;;;4.00;4.00;;;;;-146.44;100.00;58906.56;5075844;27;46294;-65
2022/07/26 09:46:33;;;;;;;;;4.00;4.00;;;;;-146.44;100.00;58906.56;5075859;28;45477;-64
2022/07/26 09:49:16;;;;;;;;;3.50;2.75;;;;;-146.44;100.00;58906.56;5075883;27;45378;-64
2022/07/26 09:51:44;;;;;;;;;4.50;4.00;;;;;-146.44;100.00;58906.56;5075943;28;45423;-65
2022/07/26 09:54:11;;;;;;;;;4.50;2.00;;;;;-146.44;100.00;58906.56;5075981;27;46191;-65
2022/07/26 09:56:43;;;;;;;;;4.50;4.50;;;;;-146.44;100.00;58906.56;5075669;27;45421;-64
2022/07/26 09:59:08;;;;;;;;;3.50;3.50;;;;;-146.44;100.00;58906.56;5075872;27;45421;-64
2022/07/26 10:01:34;;;;;;;;;2.25;2.25;;;;;-146.44;100.00;58906.56;5075759;28;45473;-65
2022/07/26 10:03:59;;;;;;;;;2.75;2.75;;;;;-146.44;100.00;58906.56;5075266;27;46245;-65
2022/07/26 10:06:24;;;;;;;;;4.00;4.00;;;;;-146.44;100.00;58906.56;5075597;27;45460;-65
2022/07/26 10:08:50;;;;;;;;;3.25;3.25;;;;;-146.44;100.00;58906.56;5075532;27;45572;-65
2022/07/26 10:11:19;;;;;;;;;2.50;2.50;;;;;-146.44;100.00;58906.56;5075160;27;45590;-65
2022/07/26 10:13:45;;;;;;;;;5.00;4.00;;;;;-146.44;100.00;58906.56;5075112;28;46251;-65
2022/07/26 10:16:30;;;;;;;;;3.00;3.00;;;;;-146.44;100.00;58906.56;5075212;27;45461;-65
2022/07/26 10:18:57;;;;;;;;;2.50;2.50;;;;;-146.44;100.00;58906.56;5075446;28;45379;-65
2022/07/26 10:21:30;;;;;;;;;3.25;3.25;;;;;-146.44;100.00;58906.56;5075304;27;45573;-64
2022/07/26 10:24:00;;;;;;;;;3.00;3.00;;;;;-146.44;100.00;58906.56;5074904;27;45455;-64
2022/07/26 10:26:32;;;;;;;;;4.00;3.50;;;;;-146.44;100.00;58906.56;5075066;27;45457;-64
2022/07/26 10:29:22;;;;;;;;;3.00;3.00;;;;;-146.44;100.00;58906.56;5076571;28;45331;-64
2022/07/26 10:31:49;;;;;;;;;2.00;2.00;;;;;-146.44;100.00;58906.56;5078335;27;45503;-64
2022/07/26 10:34:33;;;;;;;;;1.25;1.25;;;;;-146.44;100.00;58906.56;5078561;28;45420;-65
2022/07/26 10:37:02;;;;;;;;;2.00;2.00;;;;;-146.44;100.00;58906.56;5078801;28;45506;-65
2022/07/26 10:39:28;;;;;;;;;3.75;2.00;;;;;-146.44;100.00;58906.56;5078545;27;45457;-65
2022/07/26 10:42:02;;;;;;;;;2.00;2.00;;;;;-146.44;100.00;58906.56;5078552;27;45593;-65
2022/07/26 10:44:38;;;;;;;;;2.00;2.00;;;;;-146.44;100.00;58906.56;5076478;27;45613;-65
2022/07/26 10:47:06;;;;;;;;;2.25;2.25;;;;;-146.44;100.00;58906.56;5076612;28;45457;-65
2022/07/26 10:49:34;;;;;;;;;2.00;2.00;;;;;-146.44;100.00;58906.56;5077831;28;45354;-65
2022/07/26 10:52:07;;;;;;;;;1.75;1.75;;;;;-146.44;100.00;58906.56;5077986;28;45489;-65
2022/07/26 10:54:52;;;;;;;;;1.75;1.00;;;;;-146.44;100.00;58906.56;5077897;27;46389;-65
2022/07/26 10:57:18;;;;;;;;;3.00;3.00;;;;;-146.44;100.00;58906.56;5077782;28;45477;-64
2022/07/26 10:59:43;;;;;;;;;3.00;3.00;;;;;-146.44;100.00;58906.56;5078142;27;45455;-65
2022/07/26 11:02:20;;;;;;;;;2.25;2.25;;;;;-146.44;100.00;58906.56;5077875;27;45663;-65
2022/07/26 11:04:45;;;;;;;;;4.75;2.25;;;;;-146.44;100.00;58906.56;5077653;27;46024;-64
2022/07/26 11:07:14;;;;;;;;;4.00;2.75;;;;;-146.44;100.00;58906.56;5077583;28;45405;-65